Charlotte, NC

9:37 PM EST en Noviembre 23, 2014 (GMT -0500)
Midtown | Change Station
CLOSE
Current Station
Estación meteorológica personal
Location: Charlotte, NC
Altura: 650 ft
Estaciones meteorológicas cercanas

Alt 650 ft 35.21 °N, 80.84 °W | Updated 10 seconds ago

Lluvia
Lluvia
63.1 ° F
Sensación térmica 63.1 ° F
N
4.0
Viento Variable Viento desde Sur
Gusts 7.0 mph

Hoy
Alta -- | Baja -- ° F
--% Posibilidad de precipitaciones
Ayer
Alta -- | Baja -- ° F
Precip. -- pul
7:05 AM 5:13 PM
Creciente, 3% visible
Presión 29.77 pul
Visibilidad 8.0 Millas
Nubes Nubes dispersas 1200 ft
Muy nublado 3000 ft
Nublado 9500 ft
Punto de rocío 62 ° F
Humedad 97%
Precipitaciones 1.23 pul
Espesor de la nieve No disponible.
UV 0.0 de una escala de 12
Polen .40 de una escala de 12
Calidad del aire No disponible.
Flu Activity No disponible.
SPECI KCLT 240209Z COR 19010KT 8SM -RA SCT012 BKN030 OVC095 18/16 A2977

More Conditions Fewer Conditions

Presión 29.77 pul
Visibilidad 8.0 Millas
Nubes Nubes dispersas 1200 ft
Muy nublado 3000 ft
Nublado 9500 ft
Punto de rocío 62 ° F
Humedad 97%
Precipitaciones 1.23 pul
Espesor de la nieve No disponible.
UV 0.0 de una escala de 12
Polen .40 de una escala de 12
Calidad del aire No disponible.
Flu Activity No disponible.
SPECI KCLT 240209Z COR 19010KT 8SM -RA SCT012 BKN030 OVC095 18/16 A2977

More Conditions Fewer Conditions

10-Day Weather Forecast

Almanac

Astronomía

Nov. 23, 2014 Salida Puesta
Hora real
Crepúsculo civil
Crepúsculo náutico
Crepúsculo astronómico
Luna
Horas de luz
Horas de luz
Tomorrow will be .
, % of the Moon is Illuminated

Extremos de hoy

Máximos del estado Bajos del estado

Community

WunderPhotos

Upload Photos

1,773,257 ¡fotos cargadas!

WunderBlogs® & News

Nearby

Calidad del aire

  Calidad del aire Índice AQ Contaminante
Not available.

Grosos de nieve

Estación Profundido Altura

Actividad de terremotos

Ciudad Distance Mag. Tiempo y dato
Magnitud mínima muestra es 2,5.

Temperaturas de aguas costeras

Lugar Temperatura

Estaciones meteorológicas cercanas